createdAt,value
2022-08-11T00:01:54.624Z,1.53
2022-08-11T00:04:27.697Z,2.07
2022-08-11T00:06:55.766Z,1.77
2022-08-11T00:09:38.848Z,2.10
2022-08-11T00:12:15.678Z,1.83
2022-08-11T00:14:44.432Z,2.10
2022-08-11T00:17:15.826Z,1.90
2022-08-11T00:20:12.825Z,1.77
2022-08-11T00:22:40.096Z,1.70
2022-08-11T00:25:19.934Z,1.80
2022-08-11T00:27:48.926Z,1.80
2022-08-11T00:30:17.269Z,1.63
2022-08-11T00:32:55.984Z,2.00
2022-08-11T00:35:55.938Z,1.90
2022-08-11T00:38:29.104Z,1.97
2022-08-11T00:41:25.418Z,2.00
2022-08-11T00:44:16.116Z,1.80
2022-08-11T00:47:04.465Z,1.97
2022-08-11T00:49:51.867Z,1.80
2022-08-11T00:52:54.868Z,2.07
2022-08-11T00:55:55.533Z,1.80
2022-08-11T00:58:48.339Z,1.60
2022-08-11T01:01:17.983Z,2.13
2022-08-11T01:04:38.052Z,1.90
2022-08-11T01:08:02.129Z,2.00
2022-08-11T01:11:07.960Z,1.90
2022-08-11T01:14:15.305Z,1.90
2022-08-11T01:17:19.709Z,1.80
2022-08-11T01:20:45.727Z,2.07
2022-08-11T01:23:59.737Z,2.20
2022-08-11T01:27:19.787Z,1.90
2022-08-11T01:30:54.155Z,2.00
2022-08-11T01:34:01.758Z,1.73
2022-08-11T01:37:09.340Z,2.03
2022-08-11T01:39:51.358Z,2.10
2022-08-11T01:43:36.035Z,1.70
2022-08-11T01:46:18.200Z,1.93
2022-08-11T01:49:29.067Z,2.10
2022-08-11T01:52:19.404Z,1.70
2022-08-11T01:55:32.227Z,1.97
2022-08-11T01:58:40.751Z,2.10
2022-08-11T02:01:36.201Z,2.03
2022-08-11T02:04:47.028Z,2.27
2022-08-11T02:07:27.425Z,1.87
2022-08-11T02:10:00.685Z,2.10
2022-08-11T02:12:38.005Z,2.10
2022-08-11T02:15:36.393Z,2.20
2022-08-11T02:18:20.473Z,1.77
2022-08-11T02:21:15.869Z,2.20
2022-08-11T02:24:08.170Z,2.00
2022-08-11T02:27:02.183Z,2.00
2022-08-11T02:30:07.326Z,2.20
2022-08-11T02:33:07.429Z,2.30
2022-08-11T02:36:08.348Z,2.23
2022-08-11T02:39:03.065Z,2.40
2022-08-11T02:42:00.474Z,2.00
2022-08-11T02:44:42.367Z,2.10
2022-08-11T02:47:22.720Z,2.30
2022-08-11T02:50:06.855Z,2.00
2022-08-11T02:52:53.301Z,2.27
2022-08-11T02:55:56.171Z,2.33
2022-08-11T02:58:33.237Z,2.27
2022-08-11T03:01:39.092Z,2.50
2022-08-11T03:04:55.365Z,2.43
2022-08-11T03:07:29.828Z,2.37
2022-08-11T03:10:21.452Z,2.30
2022-08-11T03:13:26.915Z,2.70
2022-08-11T03:16:45.678Z,2.30
2022-08-11T03:19:37.141Z,2.50
2022-08-11T03:22:19.234Z,2.60
2022-08-11T03:24:54.694Z,2.03
2022-08-11T03:27:27.282Z,2.30
2022-08-11T03:30:14.708Z,2.43
2022-08-11T03:33:41.248Z,2.43
2022-08-11T03:37:16.030Z,2.30
2022-08-11T03:39:57.763Z,2.20
2022-08-11T03:42:41.860Z,2.23
2022-08-11T03:45:27.152Z,2.10
2022-08-11T03:48:24.988Z,2.40
2022-08-11T03:51:51.658Z,2.50
2022-08-11T03:54:54.442Z,2.60
2022-08-11T03:57:55.588Z,2.50
2022-08-11T04:01:12.579Z,2.27
2022-08-11T04:04:26.087Z,2.47
2022-08-11T04:07:38.929Z,2.70
2022-08-11T04:10:29.792Z,2.80
2022-08-11T04:13:20.768Z,2.53
2022-08-11T04:16:30.124Z,2.37
2022-08-11T04:19:53.786Z,2.70
2022-08-11T04:22:38.694Z,3.00
2022-08-11T04:25:34.116Z,3.00
2022-08-11T04:29:09.523Z,2.53
2022-08-11T04:31:59.391Z,2.63
2022-08-11T04:35:17.725Z,2.40
2022-08-11T04:38:27.114Z,2.60
2022-08-11T04:41:31.963Z,2.80
2022-08-11T04:45:03.277Z,3.00
2022-08-11T04:48:23.400Z,2.67
2022-08-11T04:51:50.900Z,2.50
2022-08-11T04:55:10.145Z,2.53
2022-08-11T04:58:20.904Z,2.30
2022-08-11T05:01:42.303Z,2.30
2022-08-11T05:05:13.242Z,2.90
2022-08-11T05:08:00.779Z,2.50
2022-08-11T05:10:58.573Z,2.93
2022-08-11T05:13:52.131Z,2.30
2022-08-11T05:16:47.082Z,2.60
2022-08-11T05:19:39.133Z,2.80
2022-08-11T05:22:32.016Z,3.10
2022-08-11T05:26:43.644Z,2.83
2022-08-11T05:28:53.632Z,2.73
2022-08-11T05:31:50.632Z,2.67
2022-08-11T05:34:51.408Z,2.40
2022-08-11T05:37:30.283Z,2.90
2022-08-11T05:40:32.029Z,3.07
2022-08-11T05:43:22.070Z,2.77
2022-08-11T05:46:21.329Z,2.60
2022-08-11T05:49:08.919Z,3.30
2022-08-11T05:52:05.424Z,2.90
2022-08-11T05:55:06.086Z,3.30
2022-08-11T05:57:50.553Z,2.90
2022-08-11T06:00:20.257Z,3.20
2022-08-11T06:02:55.250Z,3.50
2022-08-11T06:05:23.265Z,3.50
2022-08-11T06:07:57.018Z,3.23
2022-08-11T06:10:34.463Z,3.50
2022-08-11T06:13:04.926Z,3.17
2022-08-11T06:15:43.545Z,3.37
2022-08-11T06:18:13.717Z,3.37
2022-08-11T06:20:55.012Z,3.50
2022-08-11T06:23:25.927Z,3.60
2022-08-11T06:25:56.159Z,3.43
2022-08-11T06:28:35.784Z,3.37
2022-08-11T06:31:13.182Z,3.20
2022-08-11T06:33:51.308Z,3.23
2022-08-11T06:36:38.953Z,2.97
2022-08-11T06:39:42.144Z,2.70
2022-08-11T06:42:28.677Z,3.30
2022-08-11T06:45:05.187Z,3.10
2022-08-11T06:47:32.764Z,3.17
2022-08-11T06:50:19.482Z,3.20
2022-08-11T06:52:48.150Z,2.90
2022-08-11T06:55:56.246Z,2.67
2022-08-11T06:58:53.191Z,2.70
2022-08-11T07:02:06.787Z,2.37
2022-08-11T07:05:01.314Z,2.60
2022-08-11T07:08:43.179Z,2.37
2022-08-11T07:12:18.849Z,2.60
2022-08-11T07:15:14.078Z,2.43
2022-08-11T07:18:13.926Z,2.50
2022-08-11T07:21:02.277Z,2.47
2022-08-11T07:23:55.205Z,2.50
2022-08-11T07:26:45.850Z,2.30
2022-08-11T07:29:14.976Z,2.70
2022-08-11T07:31:50.068Z,2.30
2022-08-11T07:34:28.194Z,2.33
2022-08-11T07:36:59.618Z,2.40
2022-08-11T07:39:31.915Z,2.17
2022-08-11T07:42:06.124Z,2.40
2022-08-11T07:44:54.397Z,2.53
2022-08-11T07:47:41.741Z,2.23
2022-08-11T07:50:29.196Z,2.47
2022-08-11T07:53:04.098Z,2.50
2022-08-11T07:55:50.174Z,2.60
2022-08-11T07:58:45.495Z,2.43
2022-08-11T08:01:45.741Z,2.10
2022-08-11T08:04:34.831Z,2.40
2022-08-11T08:07:24.417Z,2.40
2022-08-11T08:10:14.220Z,2.20
2022-08-11T08:13:02.525Z,2.40
2022-08-11T08:15:50.019Z,2.20
2022-08-11T08:18:26.656Z,2.30
2022-08-11T08:21:11.835Z,2.40
2022-08-11T08:23:46.703Z,2.07
2022-08-11T08:26:34.796Z,2.20
2022-08-11T08:29:25.016Z,1.90
2022-08-11T08:31:53.600Z,2.20
2022-08-11T08:34:21.714Z,2.40
2022-08-11T08:36:51.829Z,2.20
2022-08-11T08:39:22.831Z,2.20
2022-08-11T08:41:55.954Z,2.33
2022-08-11T08:44:42.076Z,2.20
2022-08-11T08:47:38.761Z,2.20
2022-08-11T08:50:10.625Z,2.30
2022-08-11T08:52:53.521Z,2.10
2022-08-11T08:55:22.152Z,1.83
2022-08-11T08:57:54.212Z,2.20
2022-08-11T09:00:23.626Z,2.20
2022-08-11T09:02:52.240Z,2.07
2022-08-11T09:05:21.113Z,2.20
2022-08-11T09:07:54.475Z,1.53
2022-08-11T09:10:22.726Z,1.73
2022-08-11T09:12:51.977Z,1.67
2022-08-11T09:15:20.694Z,2.07
2022-08-11T09:17:53.731Z,1.70
2022-08-11T09:20:29.118Z,1.70
2022-08-11T09:26:30.923Z,1.70
2022-08-11T09:28:59.557Z,2.13
2022-08-11T09:31:29.501Z,1.88
2022-08-11T09:33:56.661Z,1.70
2022-08-11T09:36:42.547Z,1.70
2022-08-11T09:39:31.617Z,1.60
2022-08-11T09:42:04.435Z,1.93
2022-08-11T09:44:52.225Z,2.10
2022-08-11T09:47:33.964Z,2.00
2022-08-11T09:50:02.763Z,2.03
2022-08-11T09:52:35.918Z,1.63
2022-08-11T09:55:10.883Z,1.60
2022-08-11T09:58:04.220Z,1.58
2022-08-11T10:00:40.164Z,1.48
2022-08-11T10:03:16.826Z,1.50
2022-08-11T10:06:10.704Z,1.60
2022-08-11T10:08:42.310Z,1.83
2022-08-11T10:11:14.649Z,1.75
2022-08-11T10:14:31.368Z,1.38
2022-08-11T10:16:55.178Z,1.40
2022-08-11T10:19:22.967Z,1.80
2022-08-11T10:22:13.412Z,1.48
2022-08-11T10:25:03.418Z,1.45
2022-08-11T10:28:16.644Z,1.42
2022-08-11T10:30:38.120Z,1.58
2022-08-11T10:33:36.784Z,1.70
2022-08-11T10:36:16.484Z,1.30
2022-08-11T10:38:50.258Z,1.50
2022-08-11T10:41:37.370Z,1.63
2022-08-11T10:44:24.720Z,1.40
2022-08-11T10:47:11.466Z,1.70
2022-08-11T10:49:38.673Z,1.50
2022-08-11T10:52:24.698Z,1.70
2022-08-11T10:55:11.226Z,1.52
2022-08-11T10:58:04.721Z,1.52
2022-08-11T11:00:34.935Z,1.70
2022-08-11T11:03:16.867Z,1.58
2022-08-11T11:06:27.608Z,1.38
2022-08-11T11:08:55.529Z,1.48
2022-08-11T11:11:52.124Z,1.38
2022-08-11T11:14:46.024Z,1.60
2022-08-11T11:17:47.585Z,1.73
2022-08-11T11:20:35.767Z,1.30
2022-08-11T11:23:20.729Z,1.77
2022-08-11T11:26:07.137Z,1.48
2022-08-11T11:28:59.574Z,1.48
2022-08-11T11:32:06.361Z,1.85
2022-08-11T11:34:52.930Z,1.40
2022-08-11T11:37:23.611Z,1.80
2022-08-11T11:39:52.001Z,1.50
2022-08-11T11:42:21.364Z,1.60
2022-08-11T11:44:49.057Z,1.52
2022-08-11T11:47:21.808Z,1.50
2022-08-11T11:49:50.129Z,1.38
2022-08-11T11:52:21.009Z,1.70
2022-08-11T11:54:51.970Z,1.63
2022-08-11T11:57:40.525Z,1.35
2022-08-11T12:00:33.732Z,1.48
2022-08-11T12:03:05.054Z,1.30
2022-08-11T12:05:38.043Z,1.38
2022-08-11T12:08:18.609Z,1.60
2022-08-11T12:11:19.058Z,1.40
2022-08-11T12:13:50.319Z,1.42
2022-08-11T12:16:35.737Z,1.60
2022-08-11T12:19:16.858Z,1.38
2022-08-11T12:22:04.305Z,1.40
2022-08-11T12:24:53.612Z,1.80
2022-08-11T12:27:25.211Z,1.27
2022-08-11T12:30:09.127Z,1.30
2022-08-11T12:32:39.473Z,1.65
2022-08-11T12:35:08.233Z,1.40
2022-08-11T12:38:03.699Z,1.15
2022-08-11T12:44:06.696Z,1.45
2022-08-11T12:46:37.756Z,1.17
2022-08-11T12:49:36.296Z,1.40
2022-08-11T12:52:12.758Z,1.50
2022-08-11T12:54:59.791Z,1.33
2022-08-11T12:58:05.697Z,1.30
2022-08-11T13:00:52.299Z,1.23
2022-08-11T13:03:39.570Z,1.42
2022-08-11T13:06:08.605Z,1.33
2022-08-11T13:08:39.951Z,1.40
2022-08-11T13:11:55.610Z,1.10
2022-08-11T13:14:16.726Z,1.40
2022-08-11T13:17:04.243Z,1.40
2022-08-11T13:19:32.946Z,1.40
2022-08-11T13:22:02.337Z,1.38
2022-08-11T13:24:34.007Z,1.17
2022-08-11T13:27:02.968Z,1.40
2022-08-11T13:29:30.820Z,1.30
2022-08-11T13:32:02.058Z,1.40
2022-08-11T13:34:32.101Z,1.30
2022-08-11T13:37:04.955Z,1.15
2022-08-11T13:39:34.478Z,1.30
2022-08-11T13:42:04.391Z,1.20
2022-08-11T13:44:37.795Z,1.30
2022-08-11T13:47:08.625Z,1.33
2022-08-11T13:49:40.417Z,1.10
2022-08-11T13:52:15.722Z,1.30
2022-08-11T13:54:47.958Z,1.10
2022-08-11T13:58:06.358Z,1.40
2022-08-11T14:00:25.132Z,1.25
2022-08-11T14:02:57.754Z,1.83
2022-08-11T14:05:36.711Z,1.33
2022-08-11T14:08:31.816Z,1.58
2022-08-11T14:12:21.266Z,1.30
2022-08-11T14:14:21.308Z,1.40
2022-08-11T14:16:52.212Z,1.25
2022-08-11T14:19:25.787Z,1.10
2022-08-11T14:22:08.142Z,1.30
2022-08-11T14:24:42.787Z,1.35
2022-08-11T14:27:39.118Z,1.35
2022-08-11T14:30:00.988Z,1.23
2022-08-11T14:32:28.788Z,1.30
2022-08-11T14:34:56.768Z,1.35
2022-08-11T14:37:27.963Z,1.40
2022-08-11T14:40:03.892Z,1.20
2022-08-11T14:42:50.015Z,1.20
2022-08-11T14:45:54.273Z,1.10
2022-08-11T14:48:24.446Z,1.15
2022-08-11T14:50:52.865Z,1.33
2022-08-11T14:53:23.389Z,1.40
2022-08-11T14:56:10.038Z,1.42
2022-08-11T14:58:38.537Z,1.42
2022-08-11T15:01:26.000Z,1.40
2022-08-11T15:04:27.311Z,1.15
2022-08-11T15:06:40.840Z,1.27
2022-08-11T15:09:09.283Z,1.27
2022-08-11T15:11:59.909Z,1.55
2022-08-11T15:14:45.741Z,1.30
2022-08-11T15:17:14.310Z,1.30
2022-08-11T15:20:03.154Z,1.50
2022-08-11T15:22:49.064Z,1.30
2022-08-11T15:25:16.003Z,1.38
2022-08-11T15:28:07.063Z,1.17
2022-08-11T15:31:03.587Z,1.08
2022-08-11T15:33:51.527Z,1.40
2022-08-11T15:36:38.539Z,1.42
2022-08-11T15:39:19.352Z,1.45
2022-08-11T15:42:51.260Z,1.70
2022-08-11T15:45:43.018Z,1.55
2022-08-11T15:48:16.596Z,1.55
2022-08-11T15:50:57.645Z,1.77
2022-08-11T15:53:38.719Z,1.70
2022-08-11T15:56:08.372Z,1.60
2022-08-11T15:59:10.702Z,1.70
2022-08-11T16:02:10.260Z,1.40
2022-08-11T16:04:39.846Z,1.98
2022-08-11T16:07:14.579Z,1.63
2022-08-11T16:09:57.006Z,1.45
2022-08-11T16:12:31.518Z,1.70
2022-08-11T16:15:23.282Z,1.73
2022-08-11T16:17:59.393Z,1.88
2022-08-11T16:20:29.033Z,1.50
2022-08-11T16:23:02.935Z,1.73
2022-08-11T16:27:05.717Z,1.80
2022-08-11T16:28:24.444Z,1.50
2022-08-11T16:30:53.865Z,1.50
2022-08-11T16:33:50.801Z,1.52
2022-08-11T16:36:34.583Z,1.38
2022-08-11T16:39:04.768Z,2.03
2022-08-11T16:41:54.698Z,1.70
2022-08-11T16:44:43.638Z,1.88
2022-08-11T16:48:03.050Z,1.70
2022-08-11T16:50:09.725Z,1.80
2022-08-11T16:52:37.187Z,1.83
2022-08-11T16:55:05.733Z,1.90
2022-08-11T16:57:53.333Z,1.90
2022-08-11T17:00:20.120Z,1.90
2022-08-11T17:03:10.624Z,1.80
2022-08-11T17:06:10.246Z,1.88
2022-08-11T17:09:07.063Z,2.00
2022-08-11T17:12:16.948Z,1.98
2022-08-11T17:14:51.813Z,1.92
2022-08-11T17:17:36.611Z,1.88
2022-08-11T17:20:41.350Z,2.25
2022-08-11T17:23:17.634Z,2.08
2022-08-11T17:25:59.918Z,1.88
2022-08-11T17:28:33.062Z,2.33
2022-08-11T17:31:21.731Z,2.25
2022-08-11T17:34:10.149Z,2.30
2022-08-11T17:36:43.161Z,2.15
2022-08-11T17:39:15.230Z,2.30
2022-08-11T17:42:02.640Z,2.33
2022-08-11T17:44:51.610Z,2.15
2022-08-11T17:47:38.113Z,2.40
2022-08-11T17:50:16.403Z,2.30
2022-08-11T17:53:05.400Z,2.30
2022-08-11T17:55:54.187Z,1.90
2022-08-11T17:58:41.656Z,2.13
2022-08-11T18:01:11.861Z,1.67
2022-08-11T18:03:57.587Z,2.10
2022-08-11T18:06:33.718Z,1.90
2022-08-11T18:09:24.026Z,1.90
2022-08-11T18:12:13.407Z,2.22
2022-08-11T18:15:05.830Z,1.98
2022-08-11T18:17:52.977Z,2.15
2022-08-11T18:20:39.256Z,2.00
2022-08-11T18:23:41.799Z,1.80
2022-08-11T18:26:38.946Z,1.88
2022-08-11T18:29:26.376Z,1.90
2022-08-11T18:32:21.772Z,1.95
2022-08-11T18:35:12.258Z,1.92
2022-08-11T18:38:07.879Z,1.80
2022-08-11T18:40:56.360Z,2.38
2022-08-11T18:43:46.152Z,1.88
2022-08-11T18:46:35.054Z,2.20
2022-08-11T18:50:01.953Z,1.73
2022-08-11T18:52:41.006Z,2.28
2022-08-11T18:55:36.294Z,2.30
2022-08-11T18:58:27.426Z,2.20
2022-08-11T19:01:18.854Z,2.03
2022-08-11T19:04:11.149Z,1.60
2022-08-11T19:07:00.038Z,1.90
2022-08-11T19:09:48.342Z,1.83
2022-08-11T19:12:35.951Z,2.05
2022-08-11T19:15:23.623Z,2.10
2022-08-11T19:18:11.706Z,1.80
2022-08-11T19:21:01.044Z,2.03
2022-08-11T19:24:00.344Z,1.70
2022-08-11T19:26:49.752Z,1.70
2022-08-11T19:30:04.742Z,1.73
2022-08-11T19:32:49.776Z,1.77
2022-08-11T19:35:36.144Z,1.60
2022-08-11T19:38:22.638Z,1.80
2022-08-11T19:41:10.284Z,1.47
2022-08-11T19:43:58.981Z,1.85
2022-08-11T19:46:45.818Z,1.77
2022-08-11T19:49:32.968Z,1.70
2022-08-11T19:52:19.013Z,1.70
2022-08-11T19:55:05.949Z,1.70
2022-08-11T19:57:54.302Z,1.40
2022-08-11T20:00:41.668Z,1.60
2022-08-11T20:03:33.631Z,1.80
2022-08-11T20:06:25.738Z,1.53
2022-08-11T20:09:18.929Z,1.42
2022-08-11T20:12:10.567Z,1.40
2022-08-11T20:15:13.627Z,1.63
2022-08-11T20:18:01.834Z,1.50
2022-08-11T20:20:49.250Z,1.57
2022-08-11T20:23:36.342Z,1.85
2022-08-11T20:26:31.142Z,1.70
2022-08-11T20:29:21.262Z,1.70
2022-08-11T20:32:10.208Z,1.80
2022-08-11T20:34:58.761Z,1.50
2022-08-11T20:37:50.820Z,1.70
2022-08-11T20:40:43.212Z,1.63
2022-08-11T20:44:07.442Z,1.67
2022-08-11T20:46:41.821Z,1.60
2022-08-11T20:49:40.930Z,1.77
2022-08-11T20:52:37.335Z,1.73
2022-08-11T20:59:11.846Z,1.40
2022-08-11T21:01:47.220Z,1.60
2022-08-11T21:04:55.071Z,1.60
2022-08-11T21:07:56.674Z,1.60
2022-08-11T21:10:51.632Z,1.60
2022-08-11T21:13:51.473Z,1.70
2022-08-11T21:16:55.385Z,1.70
2022-08-11T21:20:06.571Z,1.57
2022-08-11T21:23:05.966Z,1.90
2022-08-11T21:26:14.435Z,1.77
2022-08-11T21:29:04.153Z,1.87
2022-08-11T21:31:52.148Z,1.50
2022-08-11T21:34:41.245Z,1.80
2022-08-11T21:37:28.673Z,1.63
2022-08-11T21:40:18.576Z,1.90
2022-08-11T21:43:07.035Z,1.70
2022-08-11T21:45:56.520Z,1.50
2022-08-11T21:48:45.680Z,1.67
2022-08-11T21:51:31.133Z,1.60
2022-08-11T21:54:18.547Z,1.63
2022-08-11T21:57:06.460Z,1.60
2022-08-11T22:00:09.436Z,2.00
2022-08-11T22:02:57.393Z,1.70
2022-08-11T22:05:44.707Z,1.57
2022-08-11T22:08:31.972Z,1.50
2022-08-11T22:11:32.048Z,1.63
2022-08-11T22:14:23.029Z,1.60
2022-08-11T22:17:09.008Z,1.93
2022-08-11T22:20:00.714Z,1.77
2022-08-11T22:22:53.006Z,1.93
2022-08-11T22:25:54.267Z,1.57
2022-08-11T22:28:40.492Z,1.50
2022-08-11T22:31:29.240Z,1.70
2022-08-11T22:34:15.292Z,1.60
2022-08-11T22:37:03.215Z,1.70
2022-08-11T22:39:59.918Z,1.60
2022-08-11T22:42:47.900Z,1.70
2022-08-11T22:45:33.147Z,1.50
2022-08-11T22:48:23.155Z,1.57
2022-08-11T22:51:10.493Z,1.50
2022-08-11T22:53:59.234Z,1.20
2022-08-11T22:56:51.008Z,1.50
2022-08-11T22:59:38.455Z,1.60
2022-08-11T23:02:25.839Z,1.77
2022-08-11T23:05:13.167Z,1.50
2022-08-11T23:08:00.369Z,1.40
2022-08-11T23:10:46.828Z,1.37
2022-08-11T23:13:34.702Z,1.70
2022-08-11T23:16:20.908Z,1.67
2022-08-11T23:19:08.530Z,1.97
2022-08-11T23:21:54.703Z,1.70
2022-08-11T23:24:42.880Z,1.80
2022-08-11T23:27:28.949Z,2.00
2022-08-11T23:30:19.229Z,1.57
2022-08-11T23:33:09.449Z,1.80
2022-08-11T23:36:02.261Z,1.70
2022-08-11T23:38:52.153Z,1.60
2022-08-11T23:41:38.104Z,1.30
2022-08-11T23:44:26.448Z,1.60
2022-08-11T23:47:18.568Z,1.87
2022-08-11T23:50:06.530Z,1.53
2022-08-11T23:52:53.845Z,1.53
2022-08-11T23:55:40.323Z,2.00
2022-08-11T23:58:27.808Z,2.37
